Time;durP1;ratioP1;P1;durP2;ratioP2;P2;SDS_P1;SDS_P2;PMS_P1;PMS_P2;Temp;Humidity;BMP_temperature;BMP_pressure;BME280_temperature;BME280_humidity;BME280_pressure;Samples;Min_cycle;Max_cycle;Signal;HPM_P1;HPM_P2
2023/07/24 00:02:07;;;;;;;2.88;1.30;;;21.90;99.90;;;;;;5073955;28;20423;-59
2023/07/24 00:04:35;;;;;;;2.55;1.30;;;21.90;1.00;;;;;;5073972;28;20427;-58
2023/07/24 00:07:02;;;;;;;3.60;1.50;;;21.60;1.00;;;;;;5072835;28;20438;-60
2023/07/24 00:09:30;;;;;;;2.95;1.50;;;21.30;99.90;;;;;;5076254;28;20427;-60
2023/07/24 00:11:57;;;;;;;3.72;1.20;;;21.20;99.90;;;;;;5076070;28;20435;-59
2023/07/24 00:14:24;;;;;;;2.00;1.10;;;21.30;1.00;;;;;;5076101;28;20505;-58
2023/07/24 00:16:51;;;;;;;1.90;1.10;;;21.30;99.90;;;;;;5076953;28;20416;-58
2023/07/24 00:19:18;;;;;;;2.90;1.30;;;21.30;1.00;;;;;;5076567;28;20454;-59
2023/07/24 00:21:45;;;;;;;2.70;1.30;;;21.30;81.90;;;;;;5077469;28;20427;-58
2023/07/24 00:24:12;;;;;;;2.07;1.10;;;21.30;1.00;;;;;;5077904;28;20727;-58
2023/07/24 00:26:41;;;;;;;3.00;1.20;;;21.00;99.90;;;;;;5077383;28;20817;-59
2023/07/24 00:29:08;;;;;;;3.25;1.40;;;20.60;1.00;;;;;;5077379;28;20426;-58
2023/07/24 00:31:35;;;;;;;2.65;1.20;;;20.40;1.00;;;;;;5077884;28;20901;-59
2023/07/24 00:34:02;;;;;;;2.80;1.23;;;20.40;1.00;;;;;;5077620;28;20428;-59
2023/07/24 00:36:29;;;;;;;3.40;1.40;;;20.40;1.00;;;;;;5077379;28;20443;-59
2023/07/24 00:38:55;;;;;;;2.40;1.30;;;20.40;1.00;;;;;;5075682;28;20459;-59
2023/07/24 00:41:22;;;;;;;3.28;1.25;;;20.40;1.00;;;;;;5074558;28;20497;-59
2023/07/24 00:43:51;;;;;;;2.85;1.25;;;20.40;1.00;;;;;;5076549;28;21000;-59
2023/07/24 00:46:18;;;;;;;2.73;1.10;;;20.40;1.00;;;;;;5077296;28;20489;-59
2023/07/24 00:48:45;;;;;;;3.10;1.23;;;20.40;1.00;;;;;;5077001;28;20489;-59
2023/07/24 00:51:12;;;;;;;3.35;1.40;;;20.50;1.00;;;;;;5076633;28;20427;-59
2023/07/24 00:53:39;;;;;;;3.15;1.20;;;20.40;1.00;;;;;;5076589;28;20695;-59
2023/07/24 00:56:07;;;;;;;4.03;1.20;;;20.30;1.00;;;;;;5076917;28;20427;-59
2023/07/24 00:58:35;;;;;;;2.20;1.30;;;20.30;1.00;;;;;;5076490;28;20500;-59
2023/07/24 01:01:04;;;;;;;4.15;1.40;;;20.30;1.00;;;;;;5076604;28;20502;-60
2023/07/24 01:03:34;;;;;;;2.83;1.20;;;20.20;1.00;;;;;;5075668;28;20438;-60
2023/07/24 01:06:02;;;;;;;2.72;1.50;;;20.20;1.00;;;;;;5076011;28;20427;-58
2023/07/24 01:08:30;;;;;;;4.10;1.48;;;20.10;1.00;;;;;;5074561;28;20506;-58
2023/07/24 01:11:02;;;;;;;2.00;1.20;;;20.00;1.00;;;;;;5075751;28;20416;-58
2023/07/24 01:13:34;;;;;;;2.20;1.10;;;19.90;1.00;;;;;;5077153;28;20851;-59
2023/07/24 01:16:09;;;;;;;1.98;1.10;;;19.70;1.00;;;;;;5076649;28;20778;-59
2023/07/24 01:18:39;;;;;;;3.15;1.40;;;19.90;1.00;;;;;;5076384;28;20484;-60
2023/07/24 01:21:10;;;;;;;2.45;1.20;;;19.90;1.00;;;;;;5074509;28;20431;-57
2023/07/24 01:23:52;;;;;;;2.40;1.30;;;19.80;1.00;;;;;;5076262;28;20419;-58
2023/07/24 01:26:23;;;;;;;3.10;1.20;;;19.80;1.00;;;;;;5076879;28;20443;-59
2023/07/24 01:28:50;;;;;;;3.07;1.20;;;19.80;1.00;;;;;;5075773;28;20427;-59
2023/07/24 01:31:17;;;;;;;2.60;1.20;;;19.70;1.00;;;;;;5076007;28;20437;-59
2023/07/24 01:33:45;;;;;;;1.98;1.20;;;19.70;1.00;;;;;;5076404;28;20428;-58
2023/07/24 01:36:14;;;;;;;3.05;1.20;;;19.90;1.00;;;;;;5075637;28;20438;-59
2023/07/24 01:38:42;;;;;;;3.80;1.35;;;19.90;1.00;;;;;;5075659;28;20423;-60
2023/07/24 01:41:09;;;;;;;2.17;1.10;;;19.90;1.00;;;;;;5075331;28;20435;-59
2023/07/24 01:43:37;;;;;;;3.03;1.30;;;19.80;1.00;;;;;;5075577;28;20481;-60
2023/07/24 01:46:04;;;;;;;2.47;1.10;;;19.70;1.00;;;;;;5076038;28;20431;-59
2023/07/24 01:48:31;;;;;;;2.00;1.10;;;19.70;1.00;;;;;;5074975;28;20439;-59
2023/07/24 01:50:58;;;;;;;3.00;1.30;;;19.70;1.00;;;;;;5075133;28;20424;-59
2023/07/24 01:53:25;;;;;;;2.60;1.10;;;19.60;99.90;;;;;;5075450;28;20419;-59
2023/07/24 01:55:52;;;;;;;2.20;1.00;;;19.50;99.90;;;;;;5076219;28;20419;-59
2023/07/24 01:58:19;;;;;;;1.63;1.00;;;19.60;99.90;;;;;;5076714;28;20431;-59
2023/07/24 02:00:48;;;;;;;2.35;1.10;;;19.50;99.90;;;;;;5076341;28;20455;-58
2023/07/24 02:03:15;;;;;;;2.30;1.10;;;19.60;99.90;;;;;;5075080;28;20436;-59
2023/07/24 02:05:42;;;;;;;2.30;1.30;;;19.60;99.90;;;;;;5075383;28;20496;-58
2023/07/24 02:08:09;;;;;;;2.30;1.10;;;19.60;1.00;;;;;;5075756;28;20427;-59
2023/07/24 02:10:38;;;;;;;2.47;1.15;;;19.60;1.00;;;;;;5075238;28;20430;-59
2023/07/24 02:13:07;;;;;;;3.03;1.30;;;19.70;99.90;;;;;;5075700;28;20890;-60
2023/07/24 02:15:34;;;;;;;3.00;1.20;;;19.70;84.60;;;;;;5075219;28;20428;-60
2023/07/24 02:18:02;;;;;;;3.08;1.10;;;19.70;1.00;;;;;;5074864;28;20423;-60
2023/07/24 02:20:29;;;;;;;2.83;1.30;;;19.70;99.90;;;;;;5074707;28;20436;-59
2023/07/24 02:22:56;;;;;;;2.40;1.20;;;19.70;71.20;;;;;;5074876;28;20423;-59
2023/07/24 02:25:24;;;;;;;2.00;1.10;;;19.80;99.90;;;;;;5075087;28;20855;-60
2023/07/24 02:27:50;;;;;;;2.17;1.23;;;19.90;99.90;;;;;;5075791;28;20847;-58
2023/07/24 02:30:18;;;;;;;2.40;1.20;;;20.00;34.20;;;;;;5075599;28;20912;-60
2023/07/24 02:32:44;;;;;;;2.38;1.25;;;20.10;1.00;;;;;;5075291;28;20854;-59
2023/07/24 02:35:13;;;;;;;3.22;1.30;;;20.00;1.00;;;;;;5073638;28;20782;-59
2023/07/24 02:37:40;;;;;;;1.88;1.08;;;20.00;1.00;;;;;;5073707;28;20854;-58
2023/07/24 02:40:08;;;;;;;3.10;1.30;;;20.00;99.90;;;;;;5075070;28;20705;-60
2023/07/24 02:42:34;;;;;;;2.58;1.17;;;19.90;99.90;;;;;;5075467;28;20419;-59
2023/07/24 02:45:01;;;;;;;2.00;1.20;;;20.00;1.00;;;;;;5075177;28;20431;-60
2023/07/24 02:47:28;;;;;;;2.33;1.10;;;19.90;1.00;;;;;;5074962;28;20423;-59
2023/07/24 02:49:55;;;;;;;2.38;1.20;;;20.00;1.00;;;;;;5075211;28;20469;-59
2023/07/24 02:52:24;;;;;;;2.80;1.10;;;20.10;1.00;;;;;;5074757;28;20428;-59
2023/07/24 02:54:50;;;;;;;2.70;1.20;;;20.00;1.00;;;;;;5074651;28;20492;-60
2023/07/24 02:57:18;;;;;;;3.13;1.13;;;20.10;1.00;;;;;;5074421;28;20442;-59
2023/07/24 02:59:45;;;;;;;2.53;1.10;;;20.10;1.00;;;;;;5074838;28;20438;-59
2023/07/24 03:02:12;;;;;;;3.20;1.10;;;20.10;1.00;;;;;;5074621;28;20519;-59
2023/07/24 03:04:39;;;;;;;2.60;1.30;;;20.10;99.90;;;;;;5074510;28;20496;-59
2023/07/24 03:07:06;;;;;;;2.30;1.10;;;20.20;99.90;;;;;;5073813;28;20485;-59
2023/07/24 03:09:34;;;;;;;2.38;1.20;;;20.10;89.50;;;;;;5074276;28;20423;-59
2023/07/24 03:12:01;;;;;;;2.90;1.30;;;20.10;1.00;;;;;;5074209;28;20441;-59
2023/07/24 03:14:28;;;;;;;2.03;1.10;;;20.10;99.90;;;;;;5075104;28;20419;-60
2023/07/24 03:16:55;;;;;;;2.20;1.10;;;20.10;99.90;;;;;;5073785;28;20910;-60
2023/07/24 03:19:23;;;;;;;2.88;1.20;;;20.10;99.90;;;;;;5073567;28;20431;-60
2023/07/24 03:21:50;;;;;;;2.70;1.20;;;20.00;99.90;;;;;;5074214;28;20431;-60
2023/07/24 03:24:17;;;;;;;2.20;1.20;;;20.10;99.90;;;;;;5074436;28;20435;-60
2023/07/24 03:26:45;;;;;;;3.10;1.20;;;20.10;99.90;;;;;;5073747;28;20715;-59
2023/07/24 03:29:12;;;;;;;2.70;1.20;;;20.10;99.90;;;;;;5074033;28;20419;-60
2023/07/24 03:31:39;;;;;;;2.20;1.10;;;20.10;99.90;;;;;;5074673;28;20428;-58
2023/07/24 03:34:06;;;;;;;3.30;1.10;;;20.10;1.00;;;;;;5074157;28;20423;-59
2023/07/24 03:36:35;;;;;;;2.10;1.40;;;20.10;1.00;;;;;;5073940;28;20424;-60
2023/07/24 03:39:02;;;;;;;2.20;1.13;;;20.10;99.90;;;;;;5072715;28;20518;-58
2023/07/24 03:41:29;;;;;;;3.67;1.20;;;20.20;99.90;;;;;;5074026;28;20974;-60
2023/07/24 03:43:58;;;;;;;3.42;1.10;;;20.20;99.90;;;;;;5076414;28;20414;-58
2023/07/24 03:46:25;;;;;;;2.55;1.17;;;20.20;1.00;;;;;;5078569;28;20432;-59
2023/07/24 03:48:52;;;;;;;4.00;1.30;;;20.20;99.90;;;;;;5077536;28;20467;-58
2023/07/24 03:51:19;;;;;;;3.40;1.20;;;20.20;1.00;;;;;;5078147;28;20527;-59
2023/07/24 03:53:46;;;;;;;2.55;1.30;;;20.10;99.90;;;;;;5078203;28;20427;-59
2023/07/24 03:56:13;;;;;;;2.00;1.20;;;20.00;99.90;;;;;;5078206;28;20420;-57
2023/07/24 03:58:40;;;;;;;2.40;1.20;;;20.00;99.90;;;;;;5077052;28;20427;-59
2023/07/24 04:01:09;;;;;;;2.27;1.20;;;20.10;95.40;;;;;;5077954;28;20851;-59
2023/07/24 04:03:36;;;;;;;2.15;1.13;;;20.20;1.00;;;;;;5077660;28;20427;-57
2023/07/24 04:06:04;;;;;;;2.28;1.33;;;20.20;99.90;;;;;;5076777;28;20431;-59
2023/07/24 04:08:31;;;;;;;2.92;1.10;;;20.20;99.90;;;;;;5076951;28;20419;-59
2023/07/24 04:10:58;;;;;;;2.67;1.10;;;20.10;99.90;;;;;;5077354;28;20473;-59
2023/07/24 04:13:25;;;;;;;2.38;1.20;;;20.20;99.90;;;;;;5077417;28;20839;-59
2023/07/24 04:15:52;;;;;;;2.13;1.13;;;20.30;99.90;;;;;;5077356;28;20587;-58
2023/07/24 04:18:20;;;;;;;2.63;1.10;;;20.40;60.60;;;;;;5076521;28;20427;-59
2023/07/24 04:20:47;;;;;;;2.20;1.13;;;20.40;1.00;;;;;;5076127;28;20744;-60
2023/07/24 04:23:14;;;;;;;1.88;1.10;;;20.50;1.00;;;;;;5075366;28;20420;-59
2023/07/24 04:25:41;;;;;;;2.97;1.40;;;20.50;1.00;;;;;;5077140;28;20492;-58
2023/07/24 04:28:08;;;;;;;2.90;1.27;;;20.50;1.00;;;;;;5077069;28;20504;-59
2023/07/24 04:30:35;;;;;;;2.40;1.10;;;20.40;1.00;;;;;;5076530;28;20436;-59
2023/07/24 04:33:02;;;;;;;2.20;1.10;;;20.40;1.00;;;;;;5076199;28;20419;-59
2023/07/24 04:35:31;;;;;;;2.40;1.20;;;20.40;1.00;;;;;;5076671;28;20423;-59
2023/07/24 04:37:58;;;;;;;2.92;1.27;;;20.40;1.00;;;;;;5076258;28;20424;-59
2023/07/24 04:40:25;;;;;;;2.20;1.10;;;20.50;1.00;;;;;;5075596;28;20525;-60
2023/07/24 04:42:52;;;;;;;2.40;1.20;;;20.50;1.00;;;;;;5076374;28;20524;-59
2023/07/24 04:45:20;;;;;;;1.98;1.02;;;20.60;1.00;;;;;;5076333;28;20477;-59
2023/07/24 04:47:47;;;;;;;2.58;1.20;;;20.70;1.00;;;;;;5076539;28;20518;-59
2023/07/24 04:50:14;;;;;;;3.00;1.10;;;20.80;1.00;;;;;;5076490;28;20427;-59
2023/07/24 04:52:42;;;;;;;1.87;1.20;;;20.80;1.00;;;;;;5076182;28;20427;-59
2023/07/24 04:55:10;;;;;;;1.93;1.13;;;20.80;1.00;;;;;;5072823;28;20743;-60
2023/07/24 04:57:37;;;;;;;2.40;1.20;;;20.90;1.00;;;;;;5072594;28;20481;-59
2023/07/24 05:00:05;;;;;;;2.42;1.25;;;21.00;1.00;;;;;;5073754;28;20431;-60
2023/07/24 05:02:32;;;;;;;3.00;1.13;;;21.00;1.00;;;;;;5073496;28;20789;-59
2023/07/24 05:04:59;;;;;;;2.78;1.13;;;21.10;1.00;;;;;;5074289;28;20778;-59
2023/07/24 05:07:26;;;;;;;3.70;1.30;;;21.10;99.90;;;;;;5073340;28;20431;-59
2023/07/24 05:09:55;;;;;;;3.30;1.27;;;21.10;99.90;;;;;;5073856;28;20435;-59
2023/07/24 05:12:22;;;;;;;2.70;1.20;;;21.10;99.90;;;;;;5076067;28;20529;-59
2023/07/24 05:14:49;;;;;;;3.10;1.30;;;21.00;99.90;;;;;;5075255;28;20476;-59
2023/07/24 05:17:16;;;;;;;3.87;1.30;;;20.90;99.90;;;;;;5074579;28;20506;-61
2023/07/24 05:19:43;;;;;;;2.90;1.20;;;20.90;99.90;;;;;;5074534;28;20424;-60
2023/07/24 05:22:11;;;;;;;2.72;1.30;;;20.80;99.90;;;;;;5073243;28;20431;-60
2023/07/24 05:24:38;;;;;;;3.40;1.20;;;20.80;1.00;;;;;;5071143;28;20502;-59
2023/07/24 05:27:07;;;;;;;2.13;1.20;;;20.70;1.00;;;;;;5072357;28;20500;-58
2023/07/24 05:29:34;;;;;;;2.20;1.10;;;20.70;1.00;;;;;;5073938;28;20751;-59
2023/07/24 05:32:01;;;;;;;2.00;1.30;;;20.60;1.00;;;;;;5073491;28;20469;-59
2023/07/24 05:34:28;;;;;;;2.75;1.20;;;20.60;1.00;;;;;;5072583;28;20423;-60
2023/07/24 05:36:55;;;;;;;2.70;1.10;;;20.60;1.00;;;;;;5073426;28;20744;-59
2023/07/24 05:39:22;;;;;;;4.07;1.20;;;20.60;1.00;;;;;;5072377;28;20463;-60
2023/07/24 05:41:49;;;;;;;2.60;1.60;;;20.60;1.00;;;;;;5071865;28;20427;-59
2023/07/24 05:44:17;;;;;;;2.93;1.20;;;20.60;1.00;;;;;;5071336;28;20427;-60
2023/07/24 05:46:45;;;;;;;2.58;1.10;;;20.60;1.00;;;;;;5070849;28;20588;-59
2023/07/24 05:49:11;;;;;;;2.03;1.10;;;20.60;1.00;;;;;;5071504;28;20497;-58
2023/07/24 05:51:39;;;;;;;2.53;1.13;;;20.60;1.00;;;;;;5071115;28;20643;-58
2023/07/24 05:54:06;;;;;;;3.40;1.45;;;20.70;1.00;;;;;;5072092;28;20431;-59
2023/07/24 05:56:32;;;;;;;2.65;1.30;;;20.70;1.00;;;;;;5071989;28;20693;-53
2023/07/24 05:58:59;;;;;;;3.15;1.40;;;20.80;1.00;;;;;;5071276;28;20851;-54
2023/07/24 06:01:28;;;;;;;2.10;1.30;;;20.80;1.00;;;;;;5069864;28;20933;-54
2023/07/24 06:03:55;;;;;;;2.75;1.40;;;20.80;1.00;;;;;;5072459;28;20778;-53
2023/07/24 06:06:22;;;;;;;2.85;1.38;;;20.90;1.00;;;;;;5070578;28;20485;-53
2023/07/24 06:08:50;;;;;;;3.05;1.55;;;20.90;1.00;;;;;;5067210;28;20440;-54
2023/07/24 06:11:17;;;;;;;2.97;1.10;;;20.90;1.00;;;;;;5067517;28;20450;-54
2023/07/24 06:13:45;;;;;;;3.67;1.30;;;20.90;1.00;;;;;;5063394;28;20439;-55
2023/07/24 06:16:13;;;;;;;3.90;1.60;;;21.00;1.00;;;;;;5069445;28;20427;-52
2023/07/24 06:18:42;;;;;;;2.88;1.20;;;21.00;1.00;;;;;;5068180;28;20443;-50
2023/07/24 06:21:09;;;;;;;2.50;1.20;;;21.00;1.00;;;;;;5070084;28;20540;-55
2023/07/24 06:23:36;;;;;;;2.58;1.30;;;21.00;1.00;;;;;;5068662;28;20474;-55
2023/07/24 06:26:04;;;;;;;2.50;1.40;;;21.10;1.00;;;;;;5069736;28;21195;-53
2023/07/24 06:28:31;;;;;;;2.60;1.30;;;21.20;1.00;;;;;;5069577;28;20451;-52
2023/07/24 06:30:58;;;;;;;3.40;1.40;;;21.20;1.00;;;;;;5071287;28;20533;-56
2023/07/24 06:33:25;;;;;;;3.13;1.20;;;21.30;1.00;;;;;;5068869;28;20821;-52
2023/07/24 06:35:54;;;;;;;2.90;1.20;;;21.30;1.00;;;;;;5066732;28;20457;-56
2023/07/24 06:38:22;;;;;;;2.60;1.30;;;21.40;1.00;;;;;;5067815;28;20439;-55
2023/07/24 06:40:49;;;;;;;2.70;1.30;;;21.50;1.00;;;;;;5069202;28;20434;-55
2023/07/24 06:43:16;;;;;;;6.72;1.70;;;21.70;1.00;;;;;;5069462;28;20506;-64
2023/07/24 06:45:44;;;;;;;2.70;1.38;;;21.80;1.00;;;;;;5065448;28;20480;-63
2023/07/24 06:48:11;;;;;;;2.75;1.30;;;21.90;1.00;;;;;;5067810;28;20449;-64
2023/07/24 06:50:38;;;;;;;2.47;1.20;;;21.80;1.00;;;;;;5067822;28;20454;-62
2023/07/24 06:53:06;;;;;;;3.37;2.00;;;21.90;1.00;;;;;;5067409;28;20429;-63
2023/07/24 06:55:33;;;;;;;2.57;1.40;;;21.80;1.00;;;;;;5064220;28;20912;-64
2023/07/24 06:58:00;;;;;;;3.90;1.50;;;21.70;1.00;;;;;;5065947;28;20831;-62
2023/07/24 07:00:27;;;;;;;2.75;1.30;;;21.80;1.00;;;;;;5067525;28;20435;-63
2023/07/24 07:02:54;;;;;;;8.10;5.63;;;21.80;1.00;;;;;;5067215;28;20435;-62
2023/07/24 07:05:21;;;;;;;2.90;1.33;;;21.80;1.00;;;;;;5070505;28;20496;-61
2023/07/24 07:07:48;;;;;;;3.83;1.40;;;21.80;1.00;;;;;;5072376;28;20447;-62
2023/07/24 07:10:17;;;;;;;3.65;1.35;;;21.80;1.00;;;;;;5071435;28;20493;-63
2023/07/24 07:12:44;;;;;;;3.63;1.30;;;21.90;1.00;;;;;;5070709;28;20427;-62
2023/07/24 07:15:11;;;;;;;3.10;1.40;;;21.90;1.00;;;;;;5070689;28;20628;-62
2023/07/24 07:17:38;;;;;;;2.25;1.25;;;21.90;1.00;;;;;;5068150;28;20524;-62
2023/07/24 07:20:07;;;;;;;2.90;1.30;;;21.90;1.00;;;;;;5069771;28;20767;-62
2023/07/24 07:22:34;;;;;;;2.90;1.50;;;22.00;1.00;;;;;;5066678;28;20431;-62
2023/07/24 07:25:01;;;;;;;3.00;1.40;;;22.00;1.00;;;;;;5058715;28;20852;-63
2023/07/24 07:27:29;;;;;;;3.35;1.50;;;22.00;1.00;;;;;;5068706;28;20466;-62
2023/07/24 07:29:56;;;;;;;2.70;1.40;;;22.00;1.00;;;;;;5067901;28;20477;-62
2023/07/24 07:32:23;;;;;;;2.90;1.40;;;22.10;1.00;;;;;;5070917;28;20835;-61
2023/07/24 07:34:50;;;;;;;3.20;1.50;;;22.20;1.00;;;;;;5072190;28;20416;-62
2023/07/24 07:37:18;;;;;;;3.28;1.30;;;22.30;1.00;;;;;;5071249;28;20439;-62
2023/07/24 07:39:45;;;;;;;3.00;1.33;;;22.30;1.00;;;;;;5069484;28;20426;-62
2023/07/24 07:42:12;;;;;;;2.33;1.30;;;22.40;1.00;;;;;;5069711;28;20435;-63
2023/07/24 07:44:40;;;;;;;3.20;1.40;;;22.40;1.00;;;;;;5068469;28;20426;-63
2023/07/24 07:47:07;;;;;;;2.43;1.20;;;22.30;1.00;;;;;;5068842;28;20426;-63
2023/07/24 07:49:34;;;;;;;3.10;1.38;;;22.40;1.00;;;;;;5071913;28;20431;-62
2023/07/24 07:52:01;;;;;;;3.10;1.40;;;22.50;1.00;;;;;;5072693;28;20428;-62
2023/07/24 07:54:28;;;;;;;2.90;1.42;;;22.50;1.00;;;;;;5066895;28;20447;-62
2023/07/24 07:56:55;;;;;;;3.13;1.30;;;22.60;1.00;;;;;;5069194;28;20794;-62
2023/07/24 07:59:22;;;;;;;2.70;1.30;;;22.50;1.00;;;;;;5054807;28;20431;-61
2023/07/24 08:01:51;;;;;;;2.80;1.30;;;22.50;1.00;;;;;;5065067;28;20454;-61
2023/07/24 08:04:18;;;;;;;2.80;1.45;;;22.40;1.00;;;;;;5065740;28;20496;-62
2023/07/24 08:06:45;;;;;;;2.60;1.40;;;22.30;40.80;;;;;;5068943;28;20751;-61
2023/07/24 08:09:12;;;;;;;2.97;1.40;;;22.20;1.00;;;;;;5067045;28;20524;-61
2023/07/24 08:11:39;;;;;;;2.90;1.50;;;22.20;1.00;;;;;;5061355;28;20524;-61
2023/07/24 08:14:06;;;;;;;2.83;1.30;;;22.20;1.00;;;;;;5063233;28;20530;-61
2023/07/24 08:16:33;;;;;;;4.85;1.50;;;22.30;1.00;;;;;;5067970;28;20945;-60
2023/07/24 08:19:02;;;;;;;3.67;1.45;;;22.30;93.10;;;;;;5066381;28;20439;-61
2023/07/24 08:21:29;;;;;;;2.65;1.52;;;22.30;1.00;;;;;;5065216;28;21009;-61
2023/07/24 08:23:56;;;;;;;2.88;1.30;;;22.30;1.00;;;;;;5063134;28;20427;-61
2023/07/24 08:26:25;;;;;;;5.20;1.70;;;22.00;1.00;;;;;;5063522;28;20459;-62
2023/07/24 08:28:52;;;;;;;4.82;1.50;;;21.80;99.90;;;;;;5068422;28;20804;-62
2023/07/24 08:31:20;;;;;;;4.45;1.40;;;21.60;1.00;;;;;;5073216;28;20423;-61
2023/07/24 08:33:47;;;;;;;4.28;2.20;;;21.50;1.00;;;;;;5081737;28;20430;-61
2023/07/24 08:36:15;;;;;;;3.40;1.67;;;21.30;1.00;;;;;;5075707;28;20813;-61
2023/07/24 08:38:43;;;;;;;3.50;1.60;;;21.20;1.00;;;;;;5074099;28;20500;-62
2023/07/24 08:41:11;;;;;;;4.35;2.25;;;21.00;1.00;;;;;;5073671;28;20499;-63
2023/07/24 08:43:40;;;;;;;4.68;3.08;;;20.90;1.00;;;;;;5058324;28;21094;-57
2023/07/24 08:46:07;;;;;;;4.30;1.30;;;21.00;1.00;;;;;;5053102;28;20444;-57
2023/07/24 08:48:36;;;;;;;5.00;1.80;;;21.10;1.00;;;;;;5052069;28;20483;-57
2023/07/24 08:51:04;;;;;;;3.08;1.40;;;21.00;21.30;;;;;;5052741;28;20536;-59
2023/07/24 08:53:35;;;;;;;5.18;2.00;;;20.80;81.30;;;;;;5053712;28;20417;-59
2023/07/24 08:56:03;;;;;;;4.30;1.80;;;20.50;99.90;;;;;;5054132;28;20425;-58
2023/07/24 08:58:30;;;;;;;3.97;2.13;;;20.40;99.90;;;;;;5051616;28;20429;-58
2023/07/24 09:00:58;;;;;;;3.30;1.40;;;20.60;99.90;;;;;;5051829;28;20926;-58
2023/07/24 09:03:25;;;;;;;2.35;1.40;;;20.70;96.70;;;;;;5058081;28;20438;-58
2023/07/24 09:05:52;;;;;;;2.90;1.60;;;20.80;67.50;;;;;;5073687;28;20431;-57
2023/07/24 09:08:30;;;;;;;4.15;1.60;;;20.90;98.60;;;;;;5074683;28;20777;-56
2023/07/24 09:10:58;;;;;;;3.28;1.20;;;20.90;62.90;;;;;;5073223;28;20474;-56
2023/07/24 09:13:26;;;;;;;3.15;1.90;;;21.00;44.60;;;;;;5070920;28;20481;-57
2023/07/24 09:15:53;;;;;;;3.20;1.40;;;21.20;43.30;;;;;;5073778;28;20851;-57
2023/07/24 09:18:20;;;;;;;2.55;1.33;;;21.30;3.00;;;;;;5072999;28;20560;-57
2023/07/24 09:20:47;;;;;;;2.60;1.10;;;21.40;1.00;;;;;;5071032;28;20431;-56
2023/07/24 09:23:15;;;;;;;3.20;1.30;;;21.40;1.00;;;;;;5065734;28;20431;-57
2023/07/24 09:25:44;;;;;;;2.67;1.20;;;21.50;16.50;;;;;;5058075;28;20448;-57
2023/07/24 09:28:14;;;;;;;3.55;1.10;;;21.70;1.00;;;;;;5057018;28;20439;-57
2023/07/24 09:30:43;;;;;;;2.88;1.20;;;22.00;1.00;;;;;;5061448;28;20765;-56
2023/07/24 09:33:10;;;;;;;1.60;1.10;;;22.30;1.00;;;;;;5070332;28;20744;-58
2023/07/24 09:35:37;;;;;;;2.75;1.10;;;22.30;1.00;;;;;;5070469;28;20447;-57
2023/07/24 09:38:06;;;;;;;3.30;1.20;;;22.40;1.00;;;;;;5070435;28;20863;-56
2023/07/24 09:40:41;;;;;;;2.37;1.20;;;22.30;1.00;;;;;;5062705;28;20598;-60
2023/07/24 09:43:20;;;;;;;2.75;1.08;;;22.20;1.00;;;;;;5058946;28;20451;-58
2023/07/24 09:45:49;;;;;;;1.70;1.00;;;21.90;1.00;;;;;;5071815;28;20834;-57
2023/07/24 09:48:17;;;;;;;1.90;1.00;;;21.80;1.00;;;;;;5070777;28;20419;-57
2023/07/24 09:50:47;;;;;;;2.50;1.60;;;21.80;1.00;;;;;;5069983;28;20488;-56
2023/07/24 09:53:19;;;;;;;1.70;0.90;;;21.80;1.00;;;;;;5063344;28;20807;-58
2023/07/24 09:55:53;;;;;;;2.10;1.00;;;21.60;1.00;;;;;;5065967;28;20473;-58
2023/07/24 09:58:25;;;;;;;2.00;0.90;;;21.90;1.00;;;;;;5066100;28;20431;-58
2023/07/24 10:00:53;;;;;;;1.50;0.98;;;22.10;1.00;;;;;;5063771;28;20449;-58
2023/07/24 10:03:22;;;;;;;1.90;1.00;;;22.10;1.00;;;;;;5059689;28;20434;-58
2023/07/24 10:05:50;;;;;;;2.20;1.00;;;22.30;1.00;;;;;;5068458;28;20958;-58
2023/07/24 10:08:19;;;;;;;2.00;1.20;;;22.20;1.00;;;;;;5070022;28;20518;-58
2023/07/24 10:10:46;;;;;;;3.05;1.00;;;22.20;1.00;;;;;;5066857;28;20439;-58
2023/07/24 10:13:14;;;;;;;2.80;1.60;;;22.00;1.00;;;;;;5069332;28;20446;-60
2023/07/24 10:15:43;;;;;;;2.55;1.20;;;22.00;1.00;;;;;;5071550;28;20532;-61
2023/07/24 10:18:11;;;;;;;2.42;1.23;;;22.00;1.00;;;;;;5072707;28;20862;-60
2023/07/24 10:20:39;;;;;;;2.03;1.07;;;22.10;1.00;;;;;;5072528;28;20759;-58
2023/07/24 10:23:08;;;;;;;2.58;0.98;;;22.00;1.00;;;;;;5066675;28;20431;-60
2023/07/24 10:25:40;;;;;;;1.38;0.90;;;21.90;1.00;;;;;;5053098;28;20499;-60
2023/07/24 10:28:10;;;;;;;2.40;1.00;;;21.80;1.00;;;;;;5062897;28;20480;-60
2023/07/24 10:30:38;;;;;;;2.80;1.20;;;21.80;1.00;;;;;;5055434;28;20502;-59
2023/07/24 10:33:09;;;;;;;2.55;1.20;;;21.70;1.00;;;;;;5070112;28;20852;-58
2023/07/24 10:35:40;;;;;;;1.70;1.40;;;21.70;2.80;;;;;;5054962;28;20452;-58
2023/07/24 10:38:07;;;;;;;1.80;1.00;;;21.60;18.30;;;;;;5065822;28;20476;-58
2023/07/24 10:40:35;;;;;;;2.97;1.25;;;21.50;11.60;;;;;;5064767;28;20458;-58
2023/07/24 10:43:05;;;;;;;2.55;1.10;;;21.40;41.40;;;;;;5069247;28;20496;-58
2023/07/24 10:45:43;;;;;;;2.95;1.20;;;21.40;56.10;;;;;;5066429;28;20488;-57
2023/07/24 10:48:12;;;;;;;2.40;1.30;;;21.40;59.40;;;;;;5070346;28;20552;-58
2023/07/24 10:50:43;;;;;;;2.80;1.30;;;21.20;99.90;;;;;;5068942;28;20473;-61
2023/07/24 10:53:11;;;;;;;1.98;1.30;;;21.00;99.90;;;;;;5053004;28;20433;-58
2023/07/24 10:55:39;;;;;;;3.25;1.10;;;20.90;99.90;;;;;;5067847;28;20790;-58
2023/07/24 10:58:07;;;;;;;3.60;1.20;;;20.80;99.90;;;;;;5070244;28;20447;-57
2023/07/24 11:00:34;;;;;;;2.35;1.30;;;20.60;99.90;;;;;;5069733;28;20447;-57
2023/07/24 11:03:01;;;;;;;2.50;1.20;;;20.30;99.90;;;;;;5068624;28;20489;-55
2023/07/24 11:05:30;;;;;;;3.15;1.38;;;20.20;99.90;;;;;;5068567;28;20419;-58
2023/07/24 11:07:57;;;;;;;3.80;1.30;;;20.20;99.90;;;;;;5070017;28;20855;-59
2023/07/24 11:10:24;;;;;;;3.10;1.40;;;20.20;99.90;;;;;;5071541;28;20438;-59
2023/07/24 11:12:51;;;;;;;3.67;1.60;;;20.10;99.90;;;;;;5068556;28;20458;-60
2023/07/24 11:15:25;;;;;;;3.70;1.30;;;20.00;99.90;;;;;;5067005;28;20494;-61
2023/07/24 11:17:52;;;;;;;2.50;1.20;;;20.00;99.90;;;;;;5055614;28;20895;-60
2023/07/24 11:20:19;;;;;;;3.90;1.30;;;19.90;99.90;;;;;;5067063;28;20425;-58
2023/07/24 11:22:48;;;;;;;5.25;4.10;;;19.70;99.90;;;;;;5066548;28;20431;-60
2023/07/24 11:25:16;;;;;;;4.65;3.00;;;19.70;99.90;;;;;;5071867;28;20824;-58
2023/07/24 11:27:43;;;;;;;3.95;2.30;;;19.60;99.90;;;;;;5070526;28;20435;-58
2023/07/24 11:30:12;;;;;;;2.30;1.50;;;19.60;99.90;;;;;;5070806;28;20872;-58
2023/07/24 11:32:40;;;;;;;2.90;1.38;;;19.50;99.90;;;;;;5069885;28;20446;-58
2023/07/24 11:35:09;;;;;;;3.60;1.30;;;19.50;99.90;;;;;;5070530;28;20420;-58
2023/07/24 11:37:36;;;;;;;4.00;1.20;;;19.60;99.90;;;;;;5072357;28;20432;-58
2023/07/24 11:40:09;;;;;;;2.43;1.27;;;19.80;99.90;;;;;;5069268;28;20431;-59
2023/07/24 11:42:39;;;;;;;2.40;1.20;;;20.00;99.90;;;;;;5064471;28;20440;-59
2023/07/24 11:45:09;;;;;;;2.20;1.27;;;20.30;99.90;;;;;;5068784;28;20467;-59
2023/07/24 11:47:43;;;;;;;2.90;1.00;;;21.10;99.90;;;;;;5063303;28;20425;-59
2023/07/24 11:50:11;;;;;;;3.65;1.20;;;21.70;99.90;;;;;;5051071;28;20745;-59
2023/07/24 11:52:43;;;;;;;2.67;1.30;;;21.90;99.90;;;;;;5055255;28;20475;-58
2023/07/24 11:55:12;;;;;;;2.20;1.30;;;21.90;99.90;;;;;;5062985;28;20517;-58
2023/07/24 11:57:39;;;;;;;3.47;1.40;;;21.70;99.90;;;;;;5066637;28;20447;-58
2023/07/24 12:00:19;;;;;;;2.50;1.10;;;21.30;99.90;;;;;;5055943;28;20821;-58
2023/07/24 12:02:46;;;;;;;2.50;1.10;;;21.00;99.90;;;;;;5068801;28;20589;-58
2023/07/24 12:05:13;;;;;;;2.20;1.10;;;20.70;99.90;;;;;;5072957;28;20427;-58
2023/07/24 12:07:40;;;;;;;2.65;1.30;;;20.70;99.90;;;;;;5072278;28;20435;-58
2023/07/24 12:10:08;;;;;;;2.22;1.00;;;20.70;99.90;;;;;;5072418;28;20431;-58
2023/07/24 12:12:46;;;;;;;1.90;1.20;;;20.40;99.90;;;;;;5067718;28;20474;-58
2023/07/24 12:15:14;;;;;;;2.78;1.20;;;20.40;99.90;;;;;;5054878;28;20423;-58
2023/07/24 12:17:41;;;;;;;3.40;2.33;;;20.50;99.90;;;;;;5058489;28;20439;-58
2023/07/24 12:20:10;;;;;;;2.20;1.13;;;20.60;99.90;;;;;;5067899;28;20436;-58
2023/07/24 12:22:38;;;;;;;2.00;1.10;;;20.70;99.90;;;;;;5069032;28;20454;-58
2023/07/24 12:25:06;;;;;;;2.60;1.20;;;20.60;99.90;;;;;;5071058;28;20766;-58
2023/07/24 12:27:34;;;;;;;2.50;1.10;;;20.70;99.90;;;;;;5074330;28;20728;-58
2023/07/24 12:30:03;;;;;;;2.20;1.00;;;20.90;99.90;;;;;;5072402;28;20447;-60
2023/07/24 12:32:30;;;;;;;2.30;1.20;;;21.10;99.90;;;;;;5072068;28;20739;-58
2023/07/24 12:34:57;;;;;;;1.80;1.10;;;21.10;99.90;;;;;;5069019;28;20431;-58
2023/07/24 12:37:24;;;;;;;2.30;1.10;;;21.00;99.90;;;;;;5070152;28;20493;-58
2023/07/24 12:39:51;;;;;;;2.13;1.10;;;21.00;99.90;;;;;;5067353;28;20446;-57
2023/07/24 12:42:18;;;;;;;3.07;1.20;;;21.00;99.90;;;;;;5069791;28;20445;-54
2023/07/24 12:44:45;;;;;;;2.20;1.50;;;21.20;99.90;;;;;;5070306;28;20482;-55
2023/07/24 12:47:14;;;;;;;1.50;0.90;;;21.30;99.90;;;;;;5075412;28;20485;-53
2023/07/24 12:49:41;;;;;;;2.00;1.20;;;21.40;99.90;;;;;;5054917;28;20844;-56
2023/07/24 12:52:08;;;;;;;1.60;1.00;;;21.70;99.90;;;;;;5053787;28;20437;-56
2023/07/24 12:54:36;;;;;;;1.90;1.00;;;22.00;99.90;;;;;;5054030;28;20507;-55
2023/07/24 12:57:03;;;;;;;3.50;1.00;;;22.50;99.90;;;;;;5053910;28;20510;-58